Time;durP1;ratioP1;P1;durP2;ratioP2;P2;SDS_P1;SDS_P2;PMS_P1;PMS_P2;Temp;Humidity;BMP_temperature;BMP_pressure;BME280_temperature;BME280_humidity;BME280_pressure;Samples;Min_cycle;Max_cycle;Signal;HPM_P1;HPM_P2
2023/10/02 00:01:07;;;;;;;16.23;6.55;;;14.60;99.90;;;;;;5017259;28;20022;-67
2023/10/02 00:03:39;;;;;;;18.30;6.78;;;14.50;99.90;;;;;;5016133;28;20076;-67
2023/10/02 00:06:09;;;;;;;17.02;5.95;;;14.50;99.90;;;;;;5017016;28;20106;-67
2023/10/02 00:08:51;;;;;;;12.82;5.80;;;14.50;99.90;;;;;;5016112;28;20052;-67
2023/10/02 00:11:39;;;;;;;13.90;5.50;;;14.50;99.90;;;;;;5016179;28;20025;-67
2023/10/02 00:14:27;;;;;;;15.80;6.20;;;14.50;99.90;;;;;;5016853;28;20113;-67
2023/10/02 00:17:03;;;;;;;18.67;6.25;;;14.50;99.90;;;;;;5016072;28;20030;-68
2023/10/02 00:19:46;;;;;;;18.33;6.65;;;14.50;99.90;;;;;;5017562;28;20061;-68
2023/10/02 00:22:35;;;;;;;16.40;6.03;;;14.50;99.90;;;;;;5016773;28;20030;-67
2023/10/02 00:25:07;;;;;;;14.00;5.38;;;14.40;99.90;;;;;;5016307;28;20033;-67
2023/10/02 00:27:36;;;;;;;17.50;6.90;;;14.40;99.90;;;;;;5018834;28;20018;-67
2023/10/02 00:30:13;;;;;;;16.15;6.20;;;14.40;99.90;;;;;;5019984;28;20029;-68
2023/10/02 00:32:41;;;;;;;15.25;5.85;;;14.30;99.90;;;;;;5020978;28;20018;-67
2023/10/02 00:35:10;;;;;;;16.90;7.32;;;14.30;99.90;;;;;;5020412;28;20021;-68
2023/10/02 00:37:51;;;;;;;15.32;6.30;;;14.40;99.90;;;;;;5019607;28;20030;-68
2023/10/02 00:40:24;;;;;;;17.88;6.38;;;14.40;99.90;;;;;;5020367;28;20029;-67
2023/10/02 00:42:58;;;;;;;14.57;5.97;;;14.40;99.90;;;;;;5019960;28;20117;-68
2023/10/02 00:45:29;;;;;;;17.30;5.95;;;14.50;99.90;;;;;;5019263;28;20084;-68
2023/10/02 00:48:25;;;;;;;19.15;5.90;;;14.40;99.90;;;;;;5020575;28;20030;-67
2023/10/02 00:50:49;;;;;;;15.50;6.18;;;14.40;99.90;;;;;;5020268;28;20030;-67
2023/10/02 00:53:21;;;;;;;13.02;5.20;;;14.40;99.90;;;;;;5019758;28;20037;-67
2023/10/02 00:55:47;;;;;;;;;;;14.20;99.90;;;;;;5020559;28;20018;-67
2023/10/02 00:58:15;;;;;;;16.33;6.00;;;14.10;99.90;;;;;;5019610;28;19906;-67
2023/10/02 01:00:48;;;;;;;16.42;6.43;;;14.00;99.90;;;;;;5019103;28;20021;-67
2023/10/02 01:03:16;;;;;;;16.42;6.85;;;14.00;99.90;;;;;;5019915;28;20022;-68
2023/10/02 01:05:50;;;;;;;17.20;6.38;;;14.10;99.90;;;;;;5019832;28;20022;-68
2023/10/02 01:08:23;;;;;;;12.85;5.80;;;14.00;99.90;;;;;;5019681;28;20026;-67
2023/10/02 01:11:02;;;;;;;17.98;6.95;;;14.00;99.90;;;;;;5018933;28;20018;-68
2023/10/02 01:13:32;;;;;;;17.90;6.25;;;14.10;99.90;;;;;;5019854;28;20046;-68
2023/10/02 01:16:03;;;;;;;16.23;6.35;;;14.00;99.90;;;;;;5020401;28;20103;-67
2023/10/02 01:18:29;;;;;;;15.15;6.15;;;14.00;99.90;;;;;;5019762;28;20106;-67
2023/10/02 01:20:57;;;;;;;15.95;6.18;;;14.00;99.90;;;;;;5019696;28;20061;-68
2023/10/02 01:23:27;;;;;;;14.55;5.60;;;13.90;99.90;;;;;;5018688;28;20026;-67
2023/10/02 01:25:57;;;;;;;13.43;5.35;;;13.90;99.90;;;;;;5019638;28;20022;-68
2023/10/02 01:28:49;;;;;;;16.23;6.03;;;13.80;99.90;;;;;;5018946;28;20022;-67
2023/10/02 01:31:35;;;;;;;13.75;5.80;;;13.80;99.90;;;;;;5019555;28;20218;-68
2023/10/02 01:34:02;;;;;;;17.73;5.85;;;13.80;99.90;;;;;;5019391;28;20050;-67
2023/10/02 01:36:32;;;;;;;12.23;5.80;;;13.90;99.90;;;;;;5018856;28;20033;-68
2023/10/02 01:39:15;;;;;;;15.85;5.47;;;13.90;99.90;;;;;;5018849;28;20034;-68
2023/10/02 01:41:48;;;;;;;18.63;6.15;;;13.90;99.90;;;;;;5019209;28;20105;-67
2023/10/02 01:44:20;;;;;;;16.40;5.95;;;13.90;99.90;;;;;;5019388;28;20028;-68
2023/10/02 01:46:49;;;;;;;16.58;6.40;;;13.90;99.90;;;;;;5019377;28;20030;-68
2023/10/02 01:49:24;;;;;;;14.35;5.97;;;13.80;99.90;;;;;;5019139;28;20105;-68
2023/10/02 01:52:02;;;;;;;15.90;4.78;;;13.80;99.90;;;;;;5019386;28;20049;-67
2023/10/02 01:54:31;;;;;;;16.65;5.22;;;13.70;99.90;;;;;;5019046;28;20032;-67
2023/10/02 01:56:59;;;;;;;12.27;5.13;;;13.70;99.90;;;;;;5018109;28;20021;-67
2023/10/02 01:59:25;;;;;;;14.32;5.57;;;13.70;99.90;;;;;;5018916;28;20022;-68
2023/10/02 02:01:54;;;;;;;16.60;6.20;;;13.70;99.90;;;;;;5018060;28;20038;-68
2023/10/02 02:04:20;;;;;;;18.40;6.18;;;13.70;99.90;;;;;;5017748;28;20026;-68
2023/10/02 02:06:54;;;;;;;15.77;5.40;;;13.70;99.90;;;;;;5018769;28;20057;-67
2023/10/02 02:09:30;;;;;;;10.05;5.05;;;13.60;99.90;;;;;;5019148;28;20018;-68
2023/10/02 02:14:40;;;;;;;12.27;5.00;;;13.50;99.90;;;;;;5046375;22;20050;-68
2023/10/02 02:17:12;;;;;;;16.27;5.82;;;13.40;99.90;;;;;;5038665;28;20064;-68
2023/10/02 02:19:47;;;;;;;12.45;5.47;;;13.30;99.90;;;;;;5038613;28;20052;-68
2023/10/02 02:22:25;;;;;;;15.70;5.72;;;13.30;99.90;;;;;;5038647;28;20025;-68
2023/10/02 02:24:52;;;;;;;19.25;5.57;;;13.30;99.90;;;;;;5037179;28;20029;-68
2023/10/02 02:27:21;;;;;;;10.40;5.10;;;13.30;99.90;;;;;;5037769;28;20021;-68
2023/10/02 02:29:48;;;;;;;12.30;5.68;;;13.30;99.90;;;;;;5038173;28;20025;-68
2023/10/02 02:32:14;;;;;;;11.82;5.47;;;13.20;99.90;;;;;;5037093;28;20029;-68
2023/10/02 02:34:39;;;;;;;16.70;6.13;;;13.30;99.90;;;;;;5037514;28;20022;-68
2023/10/02 02:37:06;;;;;;;11.95;4.88;;;13.30;99.90;;;;;;5038242;28;20048;-68
2023/10/02 02:39:33;;;;;;;12.65;5.20;;;13.30;99.90;;;;;;5038157;28;20026;-68
2023/10/02 02:44:48;;;;;;;11.90;5.38;;;13.30;99.90;;;;;;5038332;28;20108;-68
2023/10/02 02:47:20;;;;;;;10.07;5.43;;;13.20;99.90;;;;;;5038170;28;20017;-68
2023/10/02 02:49:48;;;;;;;14.73;6.60;;;13.20;99.90;;;;;;5037351;28;20135;-68
2023/10/02 02:52:25;;;;;;;16.55;5.47;;;13.30;99.90;;;;;;5037693;28;20026;-68
2023/10/02 02:55:05;;;;;;;15.38;5.90;;;13.30;99.90;;;;;;5036928;28;20036;-68
2023/10/02 02:57:32;;;;;;;15.07;5.75;;;13.30;99.90;;;;;;5036802;28;20025;-68
2023/10/02 03:02:46;;;;;;;13.88;4.45;;;13.40;99.90;;;;;;5038074;28;20032;-68
2023/10/02 03:05:20;;;;;;;13.82;5.22;;;13.30;99.90;;;;;;5036504;28;20057;-68
2023/10/02 03:07:48;;;;;;;11.98;5.10;;;13.20;99.90;;;;;;5037447;28;20032;-68
2023/10/02 03:10:16;;;;;;;17.75;4.88;;;13.00;99.90;;;;;;5036920;28;20059;-68
2023/10/02 03:12:48;;;;;;;11.85;5.70;;;13.00;99.90;;;;;;5037725;28;20018;-68
2023/10/02 03:15:45;;;;;;;12.38;4.78;;;13.00;99.90;;;;;;5036537;28;20034;-68
2023/10/02 03:18:36;;;;;;;12.52;5.00;;;13.00;99.90;;;;;;5037355;28;20021;-68
2023/10/02 03:23:42;;;;;;;11.25;4.65;;;13.10;99.90;;;;;;5037594;28;20029;-68
2023/10/02 03:26:27;;;;;;;12.38;4.90;;;13.00;99.90;;;;;;5037189;28;20021;-68
2023/10/02 03:29:04;;;;;;;14.02;4.70;;;13.00;99.90;;;;;;5037648;28;20028;-68
2023/10/02 03:31:37;;;;;;;12.25;4.75;;;12.90;99.90;;;;;;5037188;28;20024;-68
2023/10/02 03:34:27;;;;;;;12.95;4.22;;;12.80;99.90;;;;;;5037632;28;20025;-68
2023/10/02 03:36:55;;;;;;;11.50;4.80;;;12.70;99.90;;;;;;5037155;28;20026;-68
2023/10/02 03:42:12;;;;;;;12.57;4.72;;;12.80;99.90;;;;;;5036987;28;20037;-68
2023/10/02 03:44:38;;;;;;;11.73;4.97;;;12.70;99.90;;;;;;5036901;28;20049;-68
2023/10/02 03:47:04;;;;;;;11.93;4.95;;;12.70;99.90;;;;;;5037191;28;20072;-68
2023/10/02 03:49:32;;;;;;;11.00;4.13;;;12.70;99.90;;;;;;5037027;28;20075;-69
2023/10/02 03:51:58;;;;;;;10.10;4.90;;;12.80;99.90;;;;;;5036902;28;20022;-68
2023/10/02 03:54:23;;;;;;;14.32;4.72;;;12.80;99.90;;;;;;5036786;28;20029;-68
2023/10/02 03:56:55;;;;;;;9.30;4.55;;;12.90;99.90;;;;;;5036002;28;20025;-68
2023/10/02 03:59:26;;;;;;;13.07;5.22;;;12.90;99.90;;;;;;5036053;28;20032;-67
2023/10/02 04:01:57;;;;;;;10.50;4.75;;;12.90;99.90;;;;;;5037754;28;20041;-68
2023/10/02 04:04:24;;;;;;;12.80;4.65;;;12.90;99.90;;;;;;5041060;28;20032;-68
2023/10/02 04:06:55;;;;;;;9.07;4.00;;;12.80;99.90;;;;;;5040834;28;20030;-68
2023/10/02 04:09:23;;;;;;;10.93;4.32;;;12.70;99.90;;;;;;5040794;28;20057;-68
2023/10/02 04:11:50;;;;;;;14.20;5.10;;;12.60;99.90;;;;;;5040944;28;20068;-67
2023/10/02 04:14:17;;;;;;;9.10;3.92;;;12.60;99.90;;;;;;5040693;28;20029;-67
2023/10/02 04:16:59;;;;;;;9.60;4.20;;;12.60;99.90;;;;;;5040771;28;20025;-67
2023/10/02 04:19:26;;;;;;;9.27;3.70;;;12.70;99.90;;;;;;5041349;28;20120;-67
2023/10/02 04:21:53;;;;;;;8.13;3.42;;;12.70;99.90;;;;;;5039717;28;20091;-68
2023/10/02 04:24:23;;;;;;;9.77;4.00;;;12.70;99.90;;;;;;5040806;28;20029;-68
2023/10/02 04:26:54;;;;;;;13.90;4.53;;;12.60;99.90;;;;;;5040530;28;20025;-70
2023/10/02 04:29:28;;;;;;;8.57;4.65;;;12.50;99.90;;;;;;5039494;28;20024;-70
2023/10/02 04:32:15;;;;;;;12.18;4.18;;;12.40;99.90;;;;;;5041088;28;20091;-70
2023/10/02 04:34:50;;;;;;;8.80;3.88;;;12.30;99.90;;;;;;5040506;28;20049;-70
2023/10/02 04:37:19;;;;;;;13.38;3.95;;;12.40;99.90;;;;;;5040575;28;20021;-70
2023/10/02 04:42:29;;;;;;;9.25;3.72;;;12.40;99.90;;;;;;5040711;28;20026;-70
2023/10/02 04:44:57;;;;;;;13.07;4.35;;;12.50;99.90;;;;;;5040249;28;20025;-70
2023/10/02 04:47:27;;;;;;;10.10;4.93;;;12.60;99.90;;;;;;5040420;28;20017;-70
2023/10/02 04:52:56;;;;;;;9.13;4.10;;;12.70;99.90;;;;;;5040378;28;20104;-70
2023/10/02 04:55:31;;;;;;;9.82;3.90;;;12.70;99.90;;;;;;5040322;28;20029;-70
2023/10/02 04:58:04;;;;;;;9.20;3.95;;;12.60;99.90;;;;;;5039132;28;20084;-70
2023/10/02 05:00:33;;;;;;;9.23;4.53;;;12.50;99.90;;;;;;5040074;28;20029;-70
2023/10/02 05:03:09;;;;;;;10.30;4.13;;;12.40;99.90;;;;;;5039864;28;20032;-70
2023/10/02 05:05:49;;;;;;;10.20;4.00;;;12.40;99.90;;;;;;5039765;28;20057;-70
2023/10/02 05:08:40;;;;;;;15.25;5.10;;;12.50;99.90;;;;;;5040393;28;20071;-70
2023/10/02 05:11:07;;;;;;;11.63;3.78;;;12.50;99.90;;;;;;5040229;28;20100;-70
2023/10/02 05:16:32;;;;;;;11.52;4.57;;;12.60;99.90;;;;;;5039451;28;20034;-70
2023/10/02 05:18:58;;;;;;;11.63;4.00;;;12.60;99.90;;;;;;5039566;28;20029;-70
2023/10/02 05:21:39;;;;;;;11.95;4.30;;;12.50;99.90;;;;;;5038565;28;20040;-70
2023/10/02 05:24:07;;;;;;;12.73;4.32;;;12.50;99.90;;;;;;5039601;28;20033;-70
2023/10/02 05:26:34;;;;;;;8.95;4.20;;;12.50;99.90;;;;;;5039781;28;20044;-70
2023/10/02 05:29:01;;;;;;;15.40;4.60;;;12.40;99.90;;;;;;5039442;28;20013;-70
2023/10/02 05:31:27;;;;;;;9.27;4.00;;;12.30;99.90;;;;;;5039403;28;20017;-70
2023/10/02 05:33:54;;;;;;;10.43;4.55;;;12.30;99.90;;;;;;5039286;28;20030;-70
2023/10/02 05:36:23;;;;;;;12.77;4.60;;;12.20;99.90;;;;;;5039116;28;20045;-70
2023/10/02 05:41:44;;;;;;;16.75;4.93;;;12.20;99.90;;;;;;5039197;28;20032;-70
2023/10/02 05:44:20;;;;;;;10.50;4.07;;;12.20;99.90;;;;;;5038523;28;20021;-70
2023/10/02 05:46:57;;;;;;;9.73;4.78;;;12.20;99.90;;;;;;5038693;28;20021;-70
2023/10/02 05:49:23;;;;;;;10.20;4.38;;;12.20;99.90;;;;;;5038918;28;20021;-70
2023/10/02 05:51:55;;;;;;;11.13;4.65;;;12.20;99.90;;;;;;5039158;28;20021;-70
2023/10/02 05:54:26;;;;;;;13.85;5.45;;;12.30;99.90;;;;;;5038766;28;20029;-70
2023/10/02 05:57:08;;;;;;;15.23;5.43;;;12.40;99.90;;;;;;5039215;28;20021;-70
2023/10/02 05:59:43;;;;;;;10.50;4.57;;;12.40;99.90;;;;;;5037925;28;20078;-70
2023/10/02 06:02:27;;;;;;;14.80;5.15;;;12.40;99.90;;;;;;5038846;28;20036;-70
2023/10/02 06:04:54;;;;;;;17.48;4.85;;;12.40;99.90;;;;;;5038641;28;20029;-70
2023/10/02 06:10:25;;;;;;;13.25;4.80;;;12.40;99.90;;;;;;5038992;28;20101;-70
2023/10/02 06:13:02;;;;;;;13.02;4.38;;;12.50;99.90;;;;;;5038641;28;20021;-70
2023/10/02 06:15:47;;;;;;;11.57;4.80;;;12.50;99.90;;;;;;5038563;28;20120;-70
2023/10/02 06:18:24;;;;;;;17.38;4.78;;;12.50;99.90;;;;;;5037965;28;20029;-70
2023/10/02 06:21:00;;;;;;;10.10;4.13;;;12.40;99.90;;;;;;5038002;28;20033;-70
2023/10/02 06:23:29;;;;;;;9.77;4.90;;;12.40;99.90;;;;;;5038593;28;20089;-70
2023/10/02 06:25:58;;;;;;;21.67;5.50;;;12.40;99.90;;;;;;5037490;28;20032;-70
2023/10/02 06:28:27;;;;;;;12.35;5.63;;;12.40;99.90;;;;;;5037456;28;20018;-70
2023/10/02 06:30:54;;;;;;;15.10;4.82;;;12.50;99.90;;;;;;5037571;28;20021;-70
2023/10/02 06:33:23;;;;;;;14.50;6.10;;;12.60;99.90;;;;;;5038178;28;20022;-70
2023/10/02 06:36:00;;;;;;;14.48;5.43;;;12.60;99.90;;;;;;5038084;28;20100;-70
2023/10/02 06:38:29;;;;;;;15.10;5.78;;;12.60;99.90;;;;;;5037996;28;20018;-70
2023/10/02 06:40:56;;;;;;;14.70;5.63;;;12.60;99.90;;;;;;5038031;28;20028;-70
2023/10/02 06:43:28;;;;;;;12.48;5.82;;;12.60;99.90;;;;;;5037885;28;20017;-70
2023/10/02 06:46:06;;;;;;;15.57;5.35;;;12.70;99.90;;;;;;5037903;28;20018;-70
2023/10/02 06:48:35;;;;;;;16.70;6.05;;;12.80;99.90;;;;;;5037902;28;20026;-70
2023/10/02 06:51:03;;;;;;;13.93;6.13;;;12.80;99.90;;;;;;5037757;28;20053;-70
2023/10/02 06:53:28;;;;;;;17.00;6.25;;;12.90;99.90;;;;;;5037892;28;20017;-70
2023/10/02 06:55:58;;;;;;;13.98;6.72;;;13.00;99.90;;;;;;5036754;28;20103;-68
2023/10/02 06:58:25;;;;;;;12.00;5.28;;;13.00;99.90;;;;;;5037771;28;20026;-68
2023/10/02 07:01:02;;;;;;;15.68;6.32;;;13.00;99.90;;;;;;5037519;28;20029;-68
2023/10/02 07:03:27;;;;;;;13.25;5.63;;;13.10;99.90;;;;;;5037587;28;20025;-68
2023/10/02 07:05:53;;;;;;;11.00;5.38;;;13.20;99.90;;;;;;5036580;28;20021;-68
2023/10/02 07:08:21;;;;;;;12.13;5.03;;;13.30;99.90;;;;;;5036607;28;20029;-68
2023/10/02 07:10:50;;;;;;;13.52;5.82;;;13.40;99.90;;;;;;5037306;28;20022;-68
2023/10/02 07:13:20;;;;;;;13.48;5.75;;;13.40;99.90;;;;;;5036568;28;20045;-68
2023/10/02 07:15:46;;;;;;;15.35;5.68;;;13.60;99.90;;;;;;5036677;28;20035;-68
2023/10/02 07:18:14;;;;;;;16.90;6.10;;;13.80;99.90;;;;;;5037362;28;20030;-68
2023/10/02 07:20:43;;;;;;;13.40;6.38;;;14.00;99.90;;;;;;5037527;28;20031;-68
2023/10/02 07:23:19;;;;;;;15.88;6.05;;;14.10;99.90;;;;;;5037573;28;20030;-68
2023/10/02 07:25:50;;;;;;;14.93;6.47;;;14.10;99.90;;;;;;5037235;28;20029;-68
2023/10/02 07:28:22;;;;;;;14.02;5.93;;;14.10;99.90;;;;;;5037351;28;20037;-68
2023/10/02 07:30:50;;;;;;;13.23;6.10;;;14.10;99.90;;;;;;5037454;28;20091;-68
2023/10/02 07:33:19;;;;;;;14.88;6.32;;;14.20;99.90;;;;;;5037373;28;20022;-68
2023/10/02 07:35:52;;;;;;;17.50;6.75;;;14.20;99.90;;;;;;5036990;28;20018;-68
2023/10/02 07:38:22;;;;;;;16.98;6.22;;;14.30;99.90;;;;;;5037336;28;20032;-68
2023/10/02 07:40:48;;;;;;;16.52;7.30;;;14.50;99.90;;;;;;5037225;28;20024;-68
2023/10/02 07:43:21;;;;;;;15.02;6.53;;;14.60;99.90;;;;;;5036094;28;20113;-68
2023/10/02 07:46:14;;;;;;;19.33;7.28;;;14.70;99.90;;;;;;5036681;28;20037;-68
2023/10/02 07:48:41;;;;;;;18.35;7.93;;;14.70;99.90;;;;;;5036958;28;20022;-68
2023/10/02 07:51:09;;;;;;;17.95;7.80;;;14.80;99.90;;;;;;5036325;28;20080;-68
2023/10/02 07:53:43;;;;;;;18.95;7.45;;;14.90;99.90;;;;;;5037008;28;20033;-68
2023/10/02 07:56:11;;;;;;;17.15;7.50;;;14.80;99.90;;;;;;5036843;28;20017;-68
2023/10/02 07:58:54;;;;;;;21.20;7.55;;;14.80;99.90;;;;;;5036952;28;20025;-68
2023/10/02 08:01:23;;;;;;;18.52;7.68;;;15.00;99.90;;;;;;5035885;28;20018;-68
2023/10/02 08:03:49;;;;;;;16.70;7.00;;;15.10;99.90;;;;;;5036760;28;20049;-68
2023/10/02 08:11:50;;;;;;;22.90;7.65;;;15.50;99.90;;;;;;5036863;28;20079;-69
2023/10/02 08:14:35;;;;;;;19.95;8.07;;;15.70;99.90;;;;;;5036616;28;20044;-68
2023/10/02 08:17:08;;;;;;;13.85;7.07;;;15.70;99.90;;;;;;5042533;22;20049;-72
2023/10/02 08:19:36;;;;;;;19.92;7.90;;;15.60;99.90;;;;;;5016920;28;20018;-72
2023/10/02 08:22:05;;;;;;;21.77;7.30;;;15.60;99.90;;;;;;5016949;28;20014;-72
2023/10/02 08:24:36;;;;;;;19.73;7.88;;;15.80;99.90;;;;;;5015864;28;20034;-72
2023/10/02 08:27:04;;;;;;;15.05;6.85;;;15.90;99.90;;;;;;5016975;28;20026;-72
2023/10/02 08:29:30;;;;;;;22.13;7.95;;;16.00;99.90;;;;;;5017081;28;20018;-72
2023/10/02 08:31:56;;;;;;;19.55;7.90;;;16.20;99.90;;;;;;5016923;28;20018;-72
2023/10/02 08:34:24;;;;;;;17.77;7.18;;;16.20;99.90;;;;;;5016045;28;20033;-73
2023/10/02 08:37:09;;;;;;;21.15;8.30;;;16.20;99.90;;;;;;5016707;28;20029;-72
2023/10/02 08:39:36;;;;;;;17.35;8.10;;;16.30;99.90;;;;;;5015937;28;20030;-72
2023/10/02 08:42:09;;;;;;;14.77;6.90;;;16.40;99.90;;;;;;5015853;28;20041;-72
2023/10/02 08:44:40;;;;;;;21.08;7.97;;;16.50;99.90;;;;;;5016769;28;20050;-72
2023/10/02 08:47:23;;;;;;;19.02;7.68;;;16.50;99.90;;;;;;5016726;28;20018;-73
2023/10/02 08:50:04;;;;;;;19.75;8.23;;;16.60;99.90;;;;;;5020464;28;20022;-72
2023/10/02 08:52:42;;;;;;;20.33;8.23;;;16.70;99.90;;;;;;5019372;28;20022;-72
2023/10/02 08:55:40;;;;;;;20.23;7.65;;;16.60;99.90;;;;;;5020142;28;20025;-73
2023/10/02 09:03:41;;;;;;;20.42;7.85;;;16.80;99.90;;;;;;5020302;28;20026;-72
2023/10/02 09:06:35;;;;;;;17.10;7.78;;;16.90;99.90;;;;;;5019071;28;20030;-72
2023/10/02 09:11:41;;;;;;;20.27;8.15;;;17.10;99.90;;;;;;5020281;28;20053;-72
2023/10/02 09:14:21;;;;;;;16.35;6.60;;;17.30;99.90;;;;;;5019965;28;20033;-72
2023/10/02 09:19:53;;;;;;;14.57;6.95;;;17.70;99.90;;;;;;5020423;28;20053;-72
2023/10/02 09:22:20;;;;;;;17.75;6.75;;;17.80;99.90;;;;;;5019709;28;20021;-72
2023/10/02 09:25:09;;;;;;;16.83;7.03;;;18.00;99.90;;;;;;5019759;28;20029;-72
2023/10/02 09:27:41;;;;;;;22.40;7.05;;;18.10;99.90;;;;;;5019731;28;20045;-72
2023/10/02 09:30:21;;;;;;;14.90;7.20;;;18.30;99.90;;;;;;5019106;28;20018;-72
2023/10/02 09:32:51;;;;;;;14.70;6.50;;;18.40;99.90;;;;;;5019714;28;20110;-72
2023/10/02 09:35:41;;;;;;;19.90;7.22;;;18.40;99.90;;;;;;5019325;28;20022;-72
2023/10/02 09:38:08;;;;;;;19.10;6.88;;;18.70;99.90;;;;;;5019596;28;20025;-72
2023/10/02 09:43:20;;;;;;;18.67;6.78;;;18.80;99.90;;;;;;5019633;28;20044;-74
2023/10/02 09:45:48;;;;;;;18.65;8.10;;;19.00;99.90;;;;;;5018453;28;20030;-72
2023/10/02 09:48:50;;;;;;;15.45;6.30;;;19.10;99.90;;;;;;5018263;28;20045;-73
2023/10/02 09:51:29;;;;;;;17.77;6.95;;;19.30;99.90;;;;;;5018711;28;20026;-73
2023/10/02 09:54:17;;;;;;;18.10;6.90;;;19.30;99.90;;;;;;5019017;28;20094;-73
2023/10/02 09:57:05;;;;;;;13.38;5.60;;;19.60;99.90;;;;;;5019198;28;20021;-74
2023/10/02 09:59:57;;;;;;;18.45;6.28;;;19.60;99.90;;;;;;5018102;28;20029;-73
2023/10/02 10:07:59;;;;;;;12.00;6.00;;;20.30;99.90;;;;;;5019418;28;20105;-73
2023/10/02 10:10:45;;;;;;;15.60;6.32;;;20.30;99.90;;;;;;5019143;28;20028;-73
2023/10/02 10:13:24;;;;;;;17.67;7.00;;;20.50;99.90;;;;;;5018821;28;20018;-73
2023/10/02 10:15:51;;;;;;;19.23;7.70;;;20.70;99.90;;;;;;5017568;28;20038;-74
2023/10/02 10:18:17;;;;;;;14.98;6.50;;;20.70;99.90;;;;;;5018613;28;20022;-73
2023/10/02 10:20:44;;;;;;;17.25;7.53;;;21.00;99.90;;;;;;5017773;28;20033;-73
2023/10/02 10:23:31;;;;;;;19.80;7.72;;;21.30;99.90;;;;;;5018715;28;20018;-73
2023/10/02 10:26:07;;;;;;;16.15;7.55;;;21.30;99.90;;;;;;5018653;28;20112;-73
2023/10/02 10:28:50;;;;;;;15.70;7.22;;;21.80;99.90;;;;;;5018719;28;20018;-73
2023/10/02 10:31:27;;;;;;;16.40;7.18;;;22.50;99.90;;;;;;5018850;28;20041;-73
2023/10/02 10:33:53;;;;;;;14.10;6.88;;;22.90;99.90;;;;;;5018766;28;20057;-73
2023/10/02 10:36:38;;;;;;;16.80;6.88;;;22.80;99.90;;;;;;5018579;28;20033;-74
2023/10/02 10:39:30;;;;;;;14.52;7.40;;;23.30;99.90;;;;;;5017595;28;20033;-73
2023/10/02 10:42:00;;;;;;;17.70;7.40;;;23.30;99.90;;;;;;5018179;28;20081;-73
2023/10/02 10:44:34;;;;;;;17.23;7.88;;;23.40;99.90;;;;;;5017474;28;20026;-73
2023/10/02 10:47:03;;;;;;;16.02;7.15;;;23.70;99.90;;;;;;5018229;28;20140;-73
2023/10/02 10:49:52;;;;;;;18.13;7.70;;;23.80;99.90;;;;;;5017953;28;20049;-74
2023/10/02 10:52:34;;;;;;;16.92;7.25;;;24.00;99.90;;;;;;5017170;28;20026;-73
2023/10/02 10:55:04;;;;;;;15.68;7.47;;;23.70;99.90;;;;;;5017977;28;20025;-73
2023/10/02 10:57:43;;;;;;;16.08;7.75;;;23.80;99.90;;;;;;5017028;28;20022;-74
2023/10/02 11:00:24;;;;;;;18.73;7.80;;;24.20;99.90;;;;;;5017134;28;20026;-74
2023/10/02 11:03:01;;;;;;;18.30;7.25;;;24.60;99.90;;;;;;5017915;28;20022;-73
2023/10/02 11:05:27;;;;;;;15.90;7.80;;;24.10;99.90;;;;;;5017648;28;20030;-74
2023/10/02 11:07:55;;;;;;;19.15;7.50;;;24.00;99.90;;;;;;5017140;28;20109;-74
2023/10/02 11:10:28;;;;;;;16.63;8.00;;;24.30;99.90;;;;;;5017374;28;20104;-73
2023/10/02 11:12:55;;;;;;;22.15;9.25;;;24.60;99.90;;;;;;5017799;28;20029;-74
2023/10/02 11:18:22;;;;;;;21.33;8.63;;;24.70;99.90;;;;;;5017894;28;20077;-73
2023/10/02 11:20:50;;;;;;;18.05;7.75;;;24.40;99.90;;;;;;5017751;28;20018;-74
2023/10/02 11:23:37;;;;;;;20.85;9.13;;;24.10;99.90;;;;;;5017666;28;20022;-74
2023/10/02 11:26:10;;;;;;;21.75;9.13;;;24.00;99.90;;;;;;5016530;28;20030;-74
2023/10/02 11:28:36;;;;;;;18.50;9.15;;;24.00;99.90;;;;;;5017807;28;20029;-74
2023/10/02 11:31:30;;;;;;;19.55;9.18;;;24.00;99.90;;;;;;5016620;28;20022;-73
2023/10/02 11:34:03;;;;;;;19.00;8.13;;;24.20;99.90;;;;;;5016574;28;20026;-73
2023/10/02 11:36:34;;;;;;;20.38;8.90;;;24.40;99.90;;;;;;5017611;28;20026;-74
2023/10/02 11:39:09;;;;;;;21.50;10.65;;;24.60;99.90;;;;;;5017453;28;20097;-74
2023/10/02 11:41:38;;;;;;;16.13;7.72;;;25.00;99.90;;;;;;5017426;28;20025;-73
2023/10/02 11:44:06;;;;;;;22.50;10.60;;;24.90;99.90;;;;;;5017291;28;20171;-74
2023/10/02 11:46:32;;;;;;;18.58;8.20;;;24.90;99.90;;;;;;5017157;28;20018;-74
2023/10/02 11:48:58;;;;;;;17.50;7.75;;;24.90;99.90;;;;;;5017702;28;20121;-73
2023/10/02 11:51:28;;;;;;;17.73;8.43;;;24.80;99.90;;;;;;5017427;28;20026;-73
2023/10/02 11:54:05;;;;;;;25.77;8.63;;;25.10;99.90;;;;;;5017404;28;20026;-73
2023/10/02 11:56:31;;;;;;;17.33;7.75;;;25.30;99.90;;;;;;5017158;28;20033;-74
2023/10/02 11:58:57;;;;;;;19.17;9.30;;;25.90;99.90;;;;;;5017464;28;20053;-74
2023/10/02 12:01:24;;;;;;;23.25;9.40;;;26.00;99.90;;;;;;5017269;28;20032;-73
2023/10/02 12:03:50;;;;;;;20.42;9.73;;;25.70;99.90;;;;;;5017194;28;20026;-74
2023/10/02 12:06:16;;;;;;;23.02;8.48;;;25.50;99.90;;;;;;5016630;28;20033;-74
2023/10/02 12:08:49;;;;;;;17.92;8.25;;;25.40;99.90;;;;;;5016212;28;20140;-74
2023/10/02 12:11:14;;;;;;;19.33;8.10;;;25.40;99.90;;;;;;5016077;28;20029;-74
2023/10/02 12:13:44;;;;;;;16.27;7.97;;;25.60;99.90;;;;;;5016152;28;20018;-74
2023/10/02 12:16:13;;;;;;;24.20;8.32;;;26.10;99.90;;;;;;5015873;28;20041;-74
2023/10/02 12:18:40;;;;;;;18.20;8.45;;;26.20;99.90;;;;;;5016235;28;20034;-74
2023/10/02 12:21:11;;;;;;;20.98;8.63;;;26.40;99.90;;;;;;5016165;28;20033;-74
2023/10/02 12:23:40;;;;;;;24.00;8.75;;;26.60;99.90;;;;;;5018946;28;20092;-74
2023/10/02 12:26:11;;;;;;;15.45;7.75;;;26.60;99.90;;;;;;5020144;28;20026;-74
2023/10/02 12:28:37;;;;;;;16.20;8.15;;;26.60;99.90;;;;;;5019819;28;20022;-74
2023/10/02 12:31:14;;;;;;;18.33;8.80;;;26.70;99.90;;;;;;5020139;28;20022;-74
2023/10/02 12:33:44;;;;;;;17.52;7.57;;;27.00;99.90;;;;;;5019687;28;20021;-74
2023/10/02 12:36:23;;;;;;;17.08;8.10;;;28.20;99.90;;;;;;5019716;28;20025;-74
2023/10/02 12:38:52;;;;;;;18.58;7.75;;;27.80;99.90;;;;;;5019732;28;20049;-74
2023/10/02 12:41:23;;;;;;;21.35;8.55;;;27.40;99.90;;;;;;5020607;28;20048;-74
2023/10/02 12:43:56;;;;;;;15.68;8.80;;;27.20;99.90;;;;;;5020026;28;20049;-74
2023/10/02 12:46:23;;;;;;;16.40;7.82;;;26.90;99.90;;;;;;5019817;28;20026;-74
2023/10/02 12:48:50;;;;;;;14.50;7.53;;;26.80;99.90;;;;;;5020269;28;20026;-74
2023/10/02 12:51:17;;;;;;;17.90;7.78;;;27.10;99.90;;;;;;5019734;28;20022;-75
2023/10/02 12:53:43;;;;;;;17.77;8.43;;;27.20;99.90;;;;;;5020548;28;20097;-74
2023/10/02 12:56:22;;;;;;;17.08;8.65;;;27.40;99.90;;;;;;5019159;28;20108;-74
2023/10/02 12:58:48;;;;;;;19.70;8.70;;;27.70;99.90;;;;;;5020170;28;20031;-74
2023/10/02 13:01:18;;;;;;;23.35;9.45;;;27.70;99.90;;;;;;5019290;28;20093;-74
2023/10/02 13:03:44;;;;;;;14.85;8.15;;;28.10;99.90;;;;;;5020298;28;20140;-74
2023/10/02 13:06:12;;;;;;;16.17;8.55;;;28.10;99.90;;;;;;5020202;28;20025;-74
2023/10/02 13:08:44;;;;;;;16.67;8.80;;;28.00;99.90;;;;;;5020060;28;20026;-74
2023/10/02 13:11:12;;;;;;;15.70;7.80;;;28.10;99.90;;;;;;5019886;28;20025;-74
2023/10/02 13:13:46;;;;;;;18.70;8.73;;;28.80;99.90;;;;;;5019090;28;20152;-74
2023/10/02 13:16:12;;;;;;;16.20;8.73;;;28.50;99.90;;;;;;5019812;28;20103;-74
2023/10/02 13:18:38;;;;;;;19.50;8.15;;;28.40;99.90;;;;;;5019840;28;20026;-74
2023/10/02 13:21:12;;;;;;;19.60;9.20;;;28.20;99.90;;;;;;5019883;28;20123;-74
2023/10/02 13:23:37;;;;;;;18.60;8.50;;;28.80;99.90;;;;;;5019613;28;20022;-74
2023/10/02 13:26:10;;;;;;;18.33;8.85;;;29.20;99.90;;;;;;5019039;28;20026;-74
2023/10/02 13:28:37;;;;;;;16.40;7.75;;;28.90;99.90;;;;;;5019563;28;20056;-74
2023/10/02 13:31:13;;;;;;;17.80;8.45;;;28.70;99.90;;;;;;5019053;28;20026;-74
2023/10/02 13:33:52;;;;;;;17.27;8.32;;;29.10;99.90;;;;;;5019288;28;20018;-74
2023/10/02 13:36:22;;;;;;;14.60;7.57;;;28.80;99.90;;;;;;5019364;28;20022;-74
2023/10/02 13:38:53;;;;;;;15.68;8.27;;;28.70;99.90;;;;;;5019621;28;20033;-74
2023/10/02 13:41:19;;;;;;;17.38;8.32;;;30.90;99.90;;;;;;5019664;28;20018;-74
2023/10/02 13:43:45;;;;;;;16.30;8.07;;;31.00;99.90;;;;;;5019272;28;20029;-74
2023/10/02 13:46:14;;;;;;;15.57;8.02;;;30.30;99.90;;;;;;5019228;28;20030;-74
2023/10/02 13:48:40;;;;;;;17.92;8.50;;;29.80;99.90;;;;;;5019412;28;20054;-74
2023/10/02 13:51:07;;;;;;;15.02;8.73;;;29.70;99.90;;;;;;5019169;28;20057;-74
2023/10/02 13:53:34;;;;;;;19.42;10.60;;;29.90;99.90;;;;;;5019170;28;20026;-74
2023/10/02 13:56:10;;;;;;;14.57;7.68;;;29.60;99.90;;;;;;5018473;28;20033;-75
2023/10/02 13:58:40;;;;;;;16.88;7.63;;;29.80;99.90;;;;;;5018140;28;20061;-74
2023/10/02 14:01:10;;;;;;;13.68;7.38;;;30.30;99.90;;;;;;5019108;28;20037;-74